Time;durP1;ratioP1;P1;durP2;ratioP2;P2;SDS_P1;SDS_P2;PMS_P1;PMS_P2;Temp;Humidity;BMP_temperature;BMP_pressure;BME280_temperature;BME280_humidity;BME280_pressure;Samples;Min_cycle;Max_cycle;Signal;HPM_P1;HPM_P2
2023/07/04 00:00:35;;;;;;;4.50;2.40;;;18.60;73.50;;;;;;5005978;28;20488;-81
2023/07/04 00:03:01;;;;;;;4.00;2.57;;;18.60;73.50;;;;;;5008341;28;20434;-80
2023/07/04 00:05:26;;;;;;;5.87;2.40;;;18.50;73.60;;;;;;5005653;28;20431;-80
2023/07/04 00:07:52;;;;;;;5.43;2.20;;;18.50;73.70;;;;;;4999520;28;20494;-81
2023/07/04 00:10:20;;;;;;;5.27;2.60;;;18.40;73.70;;;;;;5001308;28;20255;-79
2023/07/04 00:12:46;;;;;;;5.73;2.27;;;18.40;73.70;;;;;;4996332;28;20201;-81
2023/07/04 00:15:13;;;;;;;5.60;2.60;;;18.40;73.70;;;;;;5003146;28;20439;-80
2023/07/04 00:17:42;;;;;;;3.60;2.00;;;18.40;74.00;;;;;;5013268;28;20434;-79
2023/07/04 00:20:09;;;;;;;5.27;2.60;;;18.30;74.50;;;;;;5009025;28;20479;-79
2023/07/04 00:22:36;;;;;;;5.00;2.60;;;18.40;74.30;;;;;;4996410;28;20441;-80
2023/07/04 00:25:03;;;;;;;4.60;2.23;;;18.40;74.60;;;;;;5005001;28;20903;-80
2023/07/04 00:27:30;;;;;;;4.10;2.10;;;18.40;74.90;;;;;;5003637;28;20497;-79
2023/07/04 00:29:58;;;;;;;4.33;2.50;;;18.40;75.10;;;;;;4994659;28;20567;-79
2023/07/04 00:32:24;;;;;;;3.13;2.13;;;18.40;75.40;;;;;;4993744;28;20476;-80
2023/07/04 00:34:50;;;;;;;3.57;2.50;;;18.40;75.40;;;;;;5000746;28;20515;-80
2023/07/04 00:37:21;;;;;;;2.90;2.10;;;18.50;75.50;;;;;;5006778;28;20192;-80
2023/07/04 00:39:49;;;;;;;3.90;2.27;;;18.50;75.50;;;;;;5004187;28;20489;-81
2023/07/04 00:42:14;;;;;;;4.40;2.83;;;18.50;75.70;;;;;;4998545;28;20451;-80
2023/07/04 00:44:47;;;;;;;4.43;2.47;;;18.50;75.90;;;;;;5010243;28;20422;-82
2023/07/04 00:47:21;;;;;;;4.57;2.40;;;18.50;76.10;;;;;;5009387;28;20219;-80
2023/07/04 00:49:57;;;;;;;6.53;2.40;;;18.50;76.40;;;;;;5005487;28;20526;-81
2023/07/04 00:52:33;;;;;;;7.30;3.00;;;18.50;76.40;;;;;;5004454;28;20412;-80
2023/07/04 00:55:04;;;;;;;5.60;2.87;;;18.50;76.70;;;;;;5006813;28;20431;-79
2023/07/04 00:57:32;;;;;;;5.57;3.13;;;18.50;76.80;;;;;;4999866;28;20492;-79
2023/07/04 01:00:14;;;;;;;6.80;3.07;;;18.50;77.10;;;;;;5001454;28;20546;-79
2023/07/04 01:02:40;;;;;;;4.43;3.10;;;18.50;76.80;;;;;;5012841;28;20422;-80
2023/07/04 01:05:06;;;;;;;6.93;2.50;;;18.50;77.10;;;;;;5011944;28;20445;-83
2023/07/04 01:07:41;;;;;;;4.60;3.03;;;18.50;77.40;;;;;;5017375;28;20288;-81
2023/07/04 01:10:30;;;;;;;4.33;3.00;;;18.50;77.10;;;;;;5007695;28;20576;-82
2023/07/04 01:12:58;;;;;;;5.27;2.67;;;18.50;76.80;;;;;;5013510;28;20410;-79
2023/07/04 01:15:24;;;;;;;4.40;2.50;;;18.60;76.80;;;;;;5014786;28;20508;-81
2023/07/04 01:17:53;;;;;;;7.13;2.83;;;18.60;76.70;;;;;;5010688;28;20414;-80
2023/07/04 01:20:19;;;;;;;4.00;2.30;;;18.60;76.70;;;;;;5005394;28;20581;-79
2023/07/04 01:22:55;;;;;;;4.03;2.47;;;18.60;76.80;;;;;;5009634;28;20432;-80
2023/07/04 01:25:36;;;;;;;4.90;2.53;;;18.50;76.80;;;;;;5012293;28;20430;-80
2023/07/04 01:28:03;;;;;;;4.27;2.40;;;18.60;76.50;;;;;;5011441;28;20487;-80
2023/07/04 01:30:31;;;;;;;5.27;2.50;;;18.60;76.20;;;;;;5008715;28;20464;-80
2023/07/04 01:33:00;;;;;;;4.90;2.80;;;18.60;76.20;;;;;;5004912;28;20436;-80
2023/07/04 01:35:27;;;;;;;10.10;3.10;;;18.60;76.40;;;;;;5010255;28;20536;-80
2023/07/04 01:37:53;;;;;;;10.83;2.63;;;18.60;76.70;;;;;;5006513;28;20426;-80
2023/07/04 01:40:20;;;;;;;4.63;2.93;;;18.60;76.80;;;;;;5002467;28;21019;-79
2023/07/04 01:42:49;;;;;;;4.90;2.30;;;18.60;76.80;;;;;;5002248;28;20428;-81
2023/07/04 01:45:14;;;;;;;3.70;2.67;;;18.60;77.10;;;;;;4999512;28;20444;-82
2023/07/04 01:47:40;;;;;;;4.73;2.70;;;18.50;77.10;;;;;;4997775;28;20486;-81
2023/07/04 01:50:08;;;;;;;7.43;3.03;;;18.50;77.40;;;;;;4992008;28;20223;-81
2023/07/04 01:52:34;;;;;;;4.50;2.63;;;18.50;77.70;;;;;;4997268;28;20508;-79
2023/07/04 01:55:00;;;;;;;6.00;3.20;;;18.40;78.10;;;;;;5008658;28;20449;-79
2023/07/04 01:57:26;;;;;;;6.30;3.37;;;18.40;78.30;;;;;;5003024;28;20208;-80
2023/07/04 01:59:52;;;;;;;5.03;2.73;;;18.40;78.40;;;;;;4998276;28;20481;-80
2023/07/04 02:02:18;;;;;;;5.10;3.00;;;18.40;78.60;;;;;;4994002;28;20183;-81
2023/07/04 02:04:43;;;;;;;7.30;3.27;;;18.40;78.90;;;;;;5001071;28;20289;-80
2023/07/04 02:07:11;;;;;;;4.30;2.70;;;18.30;79.00;;;;;;5000559;28;20477;-80
2023/07/04 02:09:37;;;;;;;7.80;3.23;;;18.30;79.30;;;;;;4999124;28;20219;-80
2023/07/04 02:12:04;;;;;;;5.40;2.90;;;18.40;79.00;;;;;;4997929;28;20509;-81
2023/07/04 02:14:30;;;;;;;6.00;3.03;;;18.40;79.00;;;;;;5006341;28;20647;-79
2023/07/04 02:16:56;;;;;;;5.30;3.10;;;18.40;79.00;;;;;;5009681;28;20432;-80
2023/07/04 02:19:21;;;;;;;4.90;2.80;;;18.40;78.90;;;;;;5004211;28;20190;-81
2023/07/04 02:21:47;;;;;;;4.90;3.17;;;18.40;78.90;;;;;;5003575;28;20195;-81
2023/07/04 02:24:13;;;;;;;5.70;3.00;;;18.40;78.70;;;;;;5007562;28;20198;-81
2023/07/04 02:26:39;;;;;;;5.23;2.73;;;18.40;78.70;;;;;;5002435;28;20239;-80
2023/07/04 02:29:05;;;;;;;4.53;2.73;;;18.40;78.90;;;;;;5001936;28;20227;-81
2023/07/04 02:31:31;;;;;;;4.87;3.00;;;18.50;78.70;;;;;;4994454;28;20998;-80
2023/07/04 02:33:56;;;;;;;3.00;2.40;;;18.50;78.40;;;;;;4991074;28;20426;-83
2023/07/04 02:36:22;;;;;;;6.13;2.57;;;18.40;78.40;;;;;;5000438;28;20586;-79
2023/07/04 02:38:48;;;;;;;5.80;2.50;;;18.40;78.30;;;;;;4999923;28;20226;-81
2023/07/04 02:41:14;;;;;;;6.40;3.33;;;18.40;78.30;;;;;;4993230;28;20474;-80
2023/07/04 02:43:39;;;;;;;4.13;2.50;;;18.30;78.30;;;;;;5000520;28;20574;-80
2023/07/04 02:46:07;;;;;;;2.90;2.17;;;18.30;78.30;;;;;;5004028;28;20202;-81
2023/07/04 02:48:33;;;;;;;4.43;2.60;;;18.30;78.40;;;;;;5007331;28;20221;-80
2023/07/04 02:51:00;;;;;;;5.80;2.97;;;18.30;78.40;;;;;;5002800;28;20468;-80
2023/07/04 02:53:26;;;;;;;4.90;2.53;;;18.30;78.40;;;;;;5000743;28;20429;-79
2023/07/04 02:55:53;;;;;;;4.53;2.87;;;18.30;78.30;;;;;;4999132;28;20437;-80
2023/07/04 02:58:20;;;;;;;4.07;2.63;;;18.20;78.10;;;;;;4997764;23;20495;-79
2023/07/04 03:00:49;;;;;;;4.10;2.20;;;18.20;78.30;;;;;;4968361;28;20847;-79
2023/07/04 03:03:16;;;;;;;3.37;2.20;;;18.20;78.30;;;;;;4974016;28;20445;-80
2023/07/04 03:05:42;;;;;;;4.27;2.27;;;18.20;78.30;;;;;;4975680;28;20492;-78
2023/07/04 03:08:08;;;;;;;4.47;2.70;;;18.20;78.30;;;;;;4988105;28;20578;-78
2023/07/04 03:10:33;;;;;;;4.57;2.53;;;18.30;78.10;;;;;;4978521;28;20637;-79
2023/07/04 03:12:59;;;;;;;4.13;2.30;;;18.20;78.10;;;;;;4970782;28;20510;-78
2023/07/04 03:15:25;;;;;;;4.00;2.20;;;18.30;78.30;;;;;;4974635;28;20196;-77
2023/07/04 03:17:51;;;;;;;12.33;3.17;;;18.20;78.40;;;;;;4967367;28;21008;-77
2023/07/04 03:20:18;;;;;;;4.37;2.30;;;18.10;78.60;;;;;;4969092;28;20473;-76
2023/07/04 03:22:44;;;;;;;4.30;2.60;;;18.20;78.70;;;;;;4970013;28;20947;-78
2023/07/04 03:25:12;;;;;;;5.10;2.70;;;18.20;78.60;;;;;;4974148;28;20446;-78
2023/07/04 03:27:39;;;;;;;4.50;2.50;;;18.20;78.60;;;;;;4973799;28;20519;-75
2023/07/04 03:30:07;;;;;;;3.60;2.60;;;18.20;78.60;;;;;;4965321;28;20527;-78
2023/07/04 03:32:33;;;;;;;4.00;2.50;;;18.10;78.70;;;;;;4974490;28;20663;-78
2023/07/04 03:35:01;;;;;;;6.00;2.93;;;18.10;78.90;;;;;;4974165;28;20443;-78
2023/07/04 03:37:36;;;;;;;4.43;3.00;;;18.10;79.00;;;;;;4955815;28;20448;-78
2023/07/04 03:40:08;;;;;;;3.53;2.40;;;18.20;79.00;;;;;;4963864;28;20895;-78
2023/07/04 03:42:35;;;;;;;4.43;2.40;;;18.10;79.00;;;;;;4968073;28;20504;-78
2023/07/04 03:45:01;;;;;;;3.43;2.20;;;18.10;79.20;;;;;;4973394;28;20463;-77
2023/07/04 03:47:27;;;;;;;5.30;2.50;;;18.10;79.20;;;;;;4971256;28;20501;-77
2023/07/04 03:49:52;;;;;;;4.30;2.30;;;18.10;79.30;;;;;;4966647;28;20583;-77
2023/07/04 03:52:18;;;;;;;3.97;2.50;;;18.10;79.50;;;;;;4972039;28;20647;-78
2023/07/04 03:54:43;;;;;;;4.63;2.90;;;18.10;79.50;;;;;;4976781;28;20192;-77
2023/07/04 03:57:09;;;;;;;5.40;3.03;;;18.20;79.30;;;;;;4985629;28;20200;-78
2023/07/04 03:59:35;;;;;;;4.07;2.70;;;18.20;79.20;;;;;;4981144;28;20203;-78
2023/07/04 04:02:01;;;;;;;4.40;2.30;;;18.20;79.20;;;;;;4966414;28;20212;-78
2023/07/04 04:04:27;;;;;;;4.40;2.90;;;18.20;79.00;;;;;;4965943;28;20583;-79
2023/07/04 04:06:56;;;;;;;4.50;2.63;;;18.30;78.90;;;;;;4971516;28;20216;-79
2023/07/04 04:09:22;;;;;;;3.13;2.40;;;18.30;78.90;;;;;;4969140;28;20189;-78
2023/07/04 04:11:49;;;;;;;5.47;2.30;;;18.20;78.90;;;;;;4970757;28;20503;-77
2023/07/04 04:14:14;;;;;;;5.50;2.17;;;18.30;78.90;;;;;;4970921;28;20435;-77
2023/07/04 04:16:40;;;;;;;3.40;2.10;;;18.40;78.60;;;;;;4966416;28;21004;-78
2023/07/04 04:19:05;;;;;;;3.43;2.17;;;18.40;78.40;;;;;;4971515;28;20195;-78
2023/07/04 04:21:31;;;;;;;4.40;2.10;;;18.40;78.10;;;;;;4968478;28;20588;-78
2023/07/04 04:23:57;;;;;;;2.90;2.10;;;18.40;78.10;;;;;;4972343;28;20286;-77
2023/07/04 04:26:23;;;;;;;2.83;1.77;;;18.40;77.80;;;;;;4972354;28;20195;-77
2023/07/04 04:28:49;;;;;;;3.57;1.93;;;18.50;77.40;;;;;;4971676;28;20694;-78
2023/07/04 04:31:15;;;;;;;3.80;2.57;;;18.50;77.40;;;;;;4967750;28;20475;-77
2023/07/04 04:33:42;;;;;;;3.30;2.33;;;18.50;77.40;;;;;;4969948;28;20450;-78
2023/07/04 04:36:08;;;;;;;5.93;2.77;;;18.50;77.40;;;;;;4971062;28;20740;-78
2023/07/04 04:38:36;;;;;;;3.27;2.00;;;18.60;77.40;;;;;;4966463;28;20441;-78
2023/07/04 04:41:06;;;;;;;4.40;2.30;;;18.60;77.40;;;;;;4963360;28;20212;-79
2023/07/04 04:43:34;;;;;;;3.00;2.30;;;18.60;77.10;;;;;;4971729;28;20530;-79
2023/07/04 04:46:01;;;;;;;4.40;2.17;;;18.70;77.10;;;;;;4963349;28;20444;-78
2023/07/04 04:48:35;;;;;;;3.93;2.60;;;18.80;76.80;;;;;;4970185;28;20496;-78
2023/07/04 04:51:07;;;;;;;4.77;3.00;;;18.70;77.00;;;;;;4963740;28;20475;-77
2023/07/04 04:53:41;;;;;;;4.53;2.20;;;18.80;77.00;;;;;;4969007;28;20452;-77
2023/07/04 04:56:08;;;;;;;3.93;2.23;;;18.80;77.10;;;;;;4972845;28;20426;-77
2023/07/04 04:58:35;;;;;;;4.43;2.70;;;18.80;77.00;;;;;;4972855;28;20886;-76
2023/07/04 05:01:22;;;;;;;3.90;2.33;;;18.80;76.80;;;;;;4969572;28;20553;-77
2023/07/04 05:03:52;;;;;;;9.27;3.20;;;18.80;76.80;;;;;;4972913;28;20445;-77
2023/07/04 05:06:18;;;;;;;4.00;2.63;;;18.80;76.70;;;;;;4980536;28;20508;-75
2023/07/04 05:08:44;;;;;;;6.03;2.80;;;18.90;75.90;;;;;;4974355;28;20490;-77
2023/07/04 05:11:09;;;;;;;5.73;2.93;;;19.00;75.40;;;;;;4967225;28;20523;-77
2023/07/04 05:13:37;;;;;;;4.60;2.97;;;19.10;74.60;;;;;;4968584;28;20192;-77
2023/07/04 05:16:05;;;;;;;6.13;3.00;;;19.20;74.80;;;;;;4973093;28;20198;-77
2023/07/04 05:18:32;;;;;;;6.30;2.90;;;19.20;74.20;;;;;;4971777;28;20468;-78
2023/07/04 05:21:09;;;;;;;4.53;2.63;;;19.20;74.20;;;;;;4968052;28;20477;-77
2023/07/04 05:23:37;;;;;;;6.50;2.97;;;19.20;74.50;;;;;;4969126;28;20430;-77
2023/07/04 05:26:06;;;;;;;4.67;2.80;;;19.30;73.90;;;;;;4972931;28;20453;-76
2023/07/04 05:28:32;;;;;;;4.00;2.50;;;19.30;73.50;;;;;;4973079;28;20455;-78
2023/07/04 05:30:59;;;;;;;8.90;3.00;;;19.40;73.50;;;;;;4965030;28;20466;-79
2023/07/04 05:33:25;;;;;;;4.90;2.80;;;19.40;73.00;;;;;;4971822;28;20628;-77
2023/07/04 05:35:51;;;;;;;3.30;2.17;;;19.50;72.60;;;;;;4975393;28;20440;-79
2023/07/04 05:38:16;;;;;;;6.07;2.93;;;19.50;72.60;;;;;;4971818;28;20481;-77
2023/07/04 05:40:43;;;;;;;3.97;2.70;;;19.50;72.30;;;;;;4967247;28;20211;-77
2023/07/04 05:43:09;;;;;;;5.77;2.50;;;19.60;72.30;;;;;;4968013;28;20242;-78
2023/07/04 05:45:34;;;;;;;5.40;3.03;;;19.60;72.00;;;;;;4972933;28;20445;-78
2023/07/04 05:48:00;;;;;;;4.40;2.53;;;19.70;72.00;;;;;;4974064;28;20230;-79
2023/07/04 05:50:25;;;;;;;4.67;2.80;;;19.70;71.70;;;;;;4966844;28;20294;-78
2023/07/04 05:52:51;;;;;;;4.03;2.90;;;19.70;71.70;;;;;;4978744;28;20191;-77
2023/07/04 05:55:16;;;;;;;4.53;2.83;;;19.80;71.80;;;;;;4980492;28;20187;-78
2023/07/04 05:57:42;;;;;;;3.13;2.53;;;19.80;71.70;;;;;;4982314;28;20215;-79
2023/07/04 06:00:09;;;;;;;5.00;3.17;;;19.80;71.60;;;;;;4973605;28;20205;-76
2023/07/04 06:02:35;;;;;;;7.73;3.07;;;19.80;71.40;;;;;;4975539;28;20250;-79
2023/07/04 06:05:01;;;;;;;7.50;3.03;;;19.80;71.60;;;;;;4980157;28;20445;-78
2023/07/04 06:07:30;;;;;;;6.90;3.40;;;19.80;71.30;;;;;;4964222;28;20693;-78
2023/07/04 06:09:56;;;;;;;5.27;3.23;;;19.80;71.60;;;;;;4965821;28;20466;-77
2023/07/04 06:12:22;;;;;;;5.47;2.93;;;19.90;71.00;;;;;;4952131;28;20438;-78
2023/07/04 06:14:47;;;;;;;5.43;2.70;;;19.90;70.20;;;;;;4972755;28;20430;-79
2023/07/04 06:17:13;;;;;;;5.73;2.70;;;20.00;70.20;;;;;;4972348;28;20190;-79
2023/07/04 06:19:39;;;;;;;5.40;3.33;;;20.00;70.10;;;;;;4968112;28;20250;-79
2023/07/04 06:22:07;;;;;;;7.03;2.70;;;20.00;69.90;;;;;;4972498;28;20184;-78
2023/07/04 06:24:32;;;;;;;6.40;2.83;;;20.10;69.90;;;;;;4977734;28;20438;-78
2023/07/04 06:26:58;;;;;;;6.07;2.73;;;20.20;69.50;;;;;;4972778;28;20490;-78
2023/07/04 06:29:23;;;;;;;6.13;2.97;;;20.30;69.10;;;;;;4969550;28;20202;-78
2023/07/04 06:31:49;;;;;;;6.23;2.70;;;20.40;68.20;;;;;;4973710;28;20218;-79
2023/07/04 06:34:15;;;;;;;5.40;3.00;;;20.40;67.70;;;;;;4972495;28;20603;-77
2023/07/04 06:36:42;;;;;;;7.03;3.07;;;20.40;68.20;;;;;;4978749;28;20219;-79
2023/07/04 06:39:08;;;;;;;6.80;3.27;;;20.30;68.20;;;;;;4971557;28;20203;-78
2023/07/04 06:41:33;;;;;;;9.90;3.30;;;20.40;67.50;;;;;;4974086;28;20467;-77
2023/07/04 06:43:59;;;;;;;5.50;3.00;;;20.50;67.60;;;;;;4953073;28;20598;-77
2023/07/04 06:46:24;;;;;;;11.10;3.70;;;20.70;67.00;;;;;;4977243;28;20230;-78
2023/07/04 06:48:51;;;;;;;10.67;3.10;;;20.70;66.70;;;;;;4975622;28;20192;-78
2023/07/04 06:51:18;;;;;;;4.43;2.90;;;20.80;66.10;;;;;;4961243;28;20210;-79
2023/07/04 06:53:45;;;;;;;5.70;3.00;;;20.90;65.10;;;;;;4974209;28;20465;-78
2023/07/04 06:56:12;;;;;;;9.03;2.90;;;21.10;65.00;;;;;;4975055;28;20454;-79
2023/07/04 06:58:40;;;;;;;6.27;2.90;;;21.10;64.70;;;;;;4977133;28;20448;-78
2023/07/04 07:01:07;;;;;;;5.13;3.27;;;21.10;65.00;;;;;;4974898;28;20459;-77
2023/07/04 07:03:33;;;;;;;5.80;3.30;;;20.90;64.70;;;;;;4980728;28;20440;-78
2023/07/04 07:06:03;;;;;;;8.57;3.80;;;21.00;65.00;;;;;;4979518;28;20446;-78
2023/07/04 07:08:30;;;;;;;6.60;3.27;;;21.00;64.40;;;;;;4979057;28;20291;-78
2023/07/04 07:11:07;;;;;;;11.20;3.40;;;20.90;64.80;;;;;;4968934;28;20470;-78
2023/07/04 07:13:34;;;;;;;11.17;3.77;;;20.90;65.10;;;;;;4971339;28;20476;-78
2023/07/04 07:16:08;;;;;;;5.90;3.80;;;20.90;64.40;;;;;;4975240;28;20446;-79
2023/07/04 07:18:35;;;;;;;10.50;4.37;;;21.00;63.90;;;;;;4968679;28;20512;-78
2023/07/04 07:21:02;;;;;;;12.60;3.80;;;21.10;63.80;;;;;;4971555;28;20583;-79
2023/07/04 07:23:28;;;;;;;9.10;3.40;;;21.30;63.70;;;;;;4968252;28;20432;-78
2023/07/04 07:25:59;;;;;;;7.10;3.83;;;21.30;64.10;;;;;;4975633;28;20908;-79
2023/07/04 07:28:28;;;;;;;9.70;4.40;;;21.30;63.90;;;;;;4967048;28;20496;-80
2023/07/04 07:31:09;;;;;;;8.37;4.20;;;21.20;64.70;;;;;;4969690;28;20473;-79
2023/07/04 07:33:38;;;;;;;5.90;3.70;;;21.20;65.30;;;;;;4968219;28;20441;-79
2023/07/04 07:36:10;;;;;;;7.60;3.50;;;21.30;65.60;;;;;;4975825;28;20860;-77
2023/07/04 07:38:35;;;;;;;8.00;3.30;;;21.30;65.70;;;;;;4977515;28;20480;-78
2023/07/04 07:41:01;;;;;;;9.93;3.70;;;21.30;65.40;;;;;;4972178;28;20919;-79
2023/07/04 07:43:27;;;;;;;9.53;4.00;;;21.30;65.10;;;;;;4980241;28;20179;-78
2023/07/04 07:45:52;;;;;;;8.67;3.90;;;21.30;65.00;;;;;;4973014;28;20196;-78
2023/07/04 07:48:18;;;;;;;14.53;4.50;;;21.50;65.00;;;;;;4970936;28;20635;-79
2023/07/04 07:50:44;;;;;;;8.40;4.40;;;21.40;64.20;;;;;;4975816;28;20227;-80
2023/07/04 07:53:10;;;;;;;19.50;4.57;;;21.30;64.50;;;;;;4977029;28;20215;-78
2023/07/04 07:55:35;;;;;;;8.90;3.80;;;21.50;63.40;;;;;;4971012;28;20272;-78
2023/07/04 07:58:01;;;;;;;6.00;3.80;;;21.50;63.40;;;;;;4969064;28;20969;-79
2023/07/04 08:00:29;;;;;;;8.07;3.93;;;21.50;63.80;;;;;;4973021;28;20292;-82
2023/07/04 08:02:54;;;;;;;6.67;4.27;;;21.60;63.70;;;;;;4974734;28;20231;-78
2023/07/04 08:05:20;;;;;;;10.73;3.93;;;21.70;63.70;;;;;;4975091;28;20840;-80
2023/07/04 08:07:46;;;;;;;11.40;4.03;;;21.80;63.50;;;;;;4959017;28;20229;-80
2023/07/04 08:10:11;;;;;;;12.60;3.87;;;21.90;63.40;;;;;;4975552;28;20237;-79
2023/07/04 08:12:37;;;;;;;10.87;4.60;;;22.10;63.40;;;;;;4976894;28;20200;-77
2023/07/04 08:15:03;;;;;;;8.97;3.27;;;22.20;62.30;;;;;;4981096;28;20204;-78
2023/07/04 08:17:29;;;;;;;11.60;4.40;;;22.20;61.60;;;;;;4980826;28;20444;-77
2023/07/04 08:19:55;;;;;;;14.33;4.83;;;22.10;61.70;;;;;;4957897;28;20472;-77
2023/07/04 08:22:21;;;;;;;9.17;4.20;;;22.20;60.10;;;;;;4972327;28;20205;-78
2023/07/04 08:24:46;;;;;;;7.33;5.20;;;22.40;59.90;;;;;;4968073;28;20230;-79
2023/07/04 08:27:12;;;;;;;7.30;3.90;;;22.40;59.90;;;;;;4972696;28;20341;-78
2023/07/04 08:29:38;;;;;;;8.87;4.97;;;22.50;60.60;;;;;;4971590;28;20214;-76
2023/07/04 08:32:06;;;;;;;9.10;4.73;;;22.30;59.70;;;;;;4978363;28;20197;-78
2023/07/04 08:34:31;;;;;;;7.60;5.23;;;22.10;60.30;;;;;;4977678;28;20208;-77
2023/07/04 08:36:57;;;;;;;10.13;4.23;;;21.90;60.40;;;;;;4978747;28;20453;-78
2023/07/04 08:39:23;;;;;;;8.93;4.57;;;22.00;61.00;;;;;;4979203;28;20193;-78
2023/07/04 08:41:52;;;;;;;11.40;4.57;;;22.10;61.00;;;;;;4975607;28;20426;-79
2023/07/04 08:44:22;;;;;;;10.10;4.23;;;22.40;60.40;;;;;;4978203;28;20440;-78
2023/07/04 08:46:55;;;;;;;10.10;4.80;;;22.20;59.90;;;;;;4973368;28;21014;-77
2023/07/04 08:49:26;;;;;;;9.33;4.80;;;22.20;60.30;;;;;;4968055;28;20947;-76
2023/07/04 08:52:03;;;;;;;12.60;5.20;;;22.10;60.00;;;;;;4964812;28;20956;-77
2023/07/04 08:54:29;;;;;;;9.63;4.40;;;22.00;59.90;;;;;;4971465;28;20507;-78
2023/07/04 08:56:59;;;;;;;9.13;4.60;;;21.80;61.30;;;;;;4972480;28;20700;-79
2023/07/04 08:59:41;;;;;;;9.37;4.83;;;21.90;60.60;;;;;;4971565;28;20453;-80
2023/07/04 09:02:36;;;;;;;10.83;4.90;;;21.90;61.20;;;;;;4970428;28;20439;-78
2023/07/04 09:05:14;;;;;;;9.73;5.23;;;21.80;61.30;;;;;;4971872;28;20445;-79
2023/07/04 09:07:57;;;;;;;7.67;4.07;;;21.70;61.60;;;;;;4974285;28;20851;-77
2023/07/04 09:10:38;;;;;;;8.47;4.87;;;21.70;61.90;;;;;;4968853;28;20471;-78
2023/07/04 09:13:11;;;;;;;12.63;5.50;;;22.00;61.70;;;;;;4966548;28;20441;-78
2023/07/04 09:15:41;;;;;;;9.93;4.93;;;22.30;61.00;;;;;;4963771;28;20469;-80
2023/07/04 09:18:33;;;;;;;9.40;5.30;;;22.50;60.00;;;;;;4962913;28;20449;-78
2023/07/04 09:21:06;;;;;;;11.93;5.50;;;22.60;60.00;;;;;;4965341;28;20469;-81
2023/07/04 09:23:31;;;;;;;10.70;4.90;;;22.60;60.60;;;;;;4969800;28;20429;-77
2023/07/04 09:25:58;;;;;;;10.97;5.57;;;22.70;60.60;;;;;;4963286;28;20793;-77
2023/07/04 09:28:25;;;;;;;14.67;5.47;;;22.60;59.50;;;;;;4970004;28;20300;-78
2023/07/04 09:30:58;;;;;;;11.80;5.40;;;22.80;59.60;;;;;;4969687;28;20490;-78
2023/07/04 09:33:24;;;;;;;11.37;5.50;;;22.90;59.10;;;;;;4976392;28;20448;-79
2023/07/04 09:35:50;;;;;;;16.23;7.33;;;23.10;58.20;;;;;;4971819;28;20506;-77
2023/07/04 09:38:16;;;;;;;15.40;7.50;;;23.30;54.20;;;;;;4983474;28;20731;-78
2023/07/04 09:40:48;;;;;;;14.43;6.50;;;23.20;55.20;;;;;;4975693;28;20227;-78
2023/07/04 09:43:33;;;;;;;10.27;5.90;;;23.20;55.20;;;;;;4976736;28;20251;-77
2023/07/04 09:46:21;;;;;;;10.77;5.77;;;23.30;55.70;;;;;;4975413;28;20442;-76
2023/07/04 09:48:47;;;;;;;11.73;6.20;;;23.20;56.10;;;;;;4974961;28;20494;-77
2023/07/04 09:51:28;;;;;;;16.03;6.90;;;23.30;55.60;;;;;;4973348;28;20460;-78
2023/07/04 09:54:18;;;;;;;11.10;5.07;;;23.30;55.40;;;;;;4979742;28;20206;-78
2023/07/04 09:56:44;;;;;;;11.57;5.97;;;23.30;56.80;;;;;;4968714;28;20448;-77
2023/07/04 09:59:32;;;;;;;8.23;5.43;;;23.10;57.40;;;;;;4971416;28;20850;-77
2023/07/04 10:02:11;;;;;;;13.57;7.73;;;23.00;57.40;;;;;;4964826;28;20453;-77
2023/07/04 10:04:40;;;;;;;12.60;6.13;;;22.90;57.00;;;;;;4974973;28;20433;-78
2023/07/04 10:07:13;;;;;;;10.03;5.70;;;22.90;57.20;;;;;;4973095;28;20493;-77
2023/07/04 10:09:55;;;;;;;11.43;6.20;;;22.90;56.50;;;;;;4966666;28;20561;-79
2023/07/04 10:12:21;;;;;;;8.80;4.80;;;22.90;56.50;;;;;;4976195;28;20927;-78
2023/07/04 10:14:56;;;;;;;9.10;5.70;;;23.00;56.50;;;;;;4973197;28;20441;-77
2023/07/04 10:17:32;;;;;;;14.90;6.37;;;23.10;56.50;;;;;;4981634;28;20449;-76
2023/07/04 10:20:03;;;;;;;9.30;5.60;;;23.60;55.80;;;;;;4977131;28;20544;-79
2023/07/04 10:22:34;;;;;;;13.50;6.43;;;24.00;54.80;;;;;;4969227;28;20440;-78
2023/07/04 10:25:02;;;;;;;9.07;5.43;;;24.30;54.10;;;;;;4975460;28;20557;-77
2023/07/04 10:27:34;;;;;;;11.47;6.00;;;24.20;53.60;;;;;;4975094;28;20550;-77
2023/07/04 10:30:02;;;;;;;9.93;5.53;;;24.10;53.70;;;;;;4974655;28;20461;-77
2023/07/04 10:32:28;;;;;;;16.60;6.27;;;24.30;52.90;;;;;;4979503;28;20425;-77
2023/07/04 10:34:55;;;;;;;12.53;6.13;;;24.70;51.00;;;;;;4979985;28;20500;-76
2023/07/04 10:37:31;;;;;;;11.17;6.20;;;24.60;50.10;;;;;;4980777;28;20801;-77
2023/07/04 10:40:00;;;;;;;8.60;4.90;;;24.50;50.30;;;;;;4977650;28;20475;-77
2023/07/04 10:42:34;;;;;;;12.30;5.80;;;24.40;51.40;;;;;;4966355;28;21025;-79
2023/07/04 10:45:02;;;;;;;9.77;6.10;;;24.40;51.70;;;;;;4976443;28;21075;-76
2023/07/04 10:47:32;;;;;;;10.50;5.97;;;24.20;52.20;;;;;;4974886;28;20659;-77
2023/07/04 10:50:13;;;;;;;12.10;6.60;;;24.30;52.40;;;;;;4970534;28;21225;-77
2023/07/04 10:52:43;;;;;;;10.40;6.03;;;24.30;52.10;;;;;;4974198;28;20448;-77
2023/07/04 10:55:25;;;;;;;11.50;6.03;;;24.20;53.00;;;;;;4974999;28;20437;-77
2023/07/04 10:58:09;;;;;;;11.07;6.20;;;24.40;52.90;;;;;;4970874;28;21120;-76
2023/07/04 11:00:43;;;;;;;14.80;6.60;;;24.00;53.60;;;;;;4977513;28;20533;-77
2023/07/04 11:03:27;;;;;;;10.80;6.20;;;23.70;54.20;;;;;;4976461;28;20543;-79
2023/07/04 11:05:56;;;;;;;11.13;6.00;;;23.80;53.80;;;;;;4970729;28;20509;-82
2023/07/04 11:08:25;;;;;;;11.13;6.03;;;23.90;53.40;;;;;;4969933;28;20487;-78
2023/07/04 11:10:58;;;;;;;14.20;6.37;;;23.80;53.30;;;;;;4969371;28;21002;-78
2023/07/04 11:13:25;;;;;;;12.90;6.27;;;24.00;53.80;;;;;;4982160;28;20508;-78
2023/07/04 11:15:57;;;;;;;8.43;5.70;;;24.20;52.50;;;;;;4979776;28;20978;-78
2023/07/04 11:18:30;;;;;;;18.00;6.03;;;24.50;52.20;;;;;;4977218;28;20436;-79
2023/07/04 11:21:10;;;;;;;13.37;6.70;;;24.90;52.10;;;;;;4966437;28;20471;-76
2023/07/04 11:23:53;;;;;;;11.10;6.20;;;25.40;49.90;;;;;;4975732;28;20447;-78
2023/07/04 11:26:21;;;;;;;10.70;6.07;;;26.10;48.70;;;;;;4975127;28;20433;-78
2023/07/04 11:29:06;;;;;;;9.97;5.20;;;25.90;48.50;;;;;;4979271;28;20590;-76
2023/07/04 11:31:31;;;;;;;12.27;6.10;;;26.60;46.30;;;;;;4970957;28;20477;-78
2023/07/04 11:33:57;;;;;;;7.20;4.90;;;26.50;45.80;;;;;;4976466;28;20451;-76
2023/07/04 11:36:28;;;;;;;8.83;5.13;;;26.10;46.50;;;;;;4970483;28;20654;-79
2023/07/04 11:38:58;;;;;;;13.23;5.30;;;25.60;47.50;;;;;;4973202;28;20200;-76
2023/07/04 11:41:27;;;;;;;5.97;4.00;;;25.60;47.80;;;;;;4955158;28;20464;-78
2023/07/04 11:43:54;;;;;;;10.53;4.90;;;26.10;45.70;;;;;;4980126;28;20437;-77
2023/07/04 11:46:26;;;;;;;8.57;4.90;;;26.00;46.10;;;;;;4976618;28;20519;-78
2023/07/04 11:48:54;;;;;;;7.80;4.30;;;26.20;45.80;;;;;;4983697;28;20958;-77
2023/07/04 11:51:22;;;;;;;9.10;5.23;;;26.40;45.40;;;;;;4976480;28;20445;-77
2023/07/04 11:53:58;;;;;;;10.77;5.60;;;26.20;44.90;;;;;;4977721;28;20438;-76
2023/07/04 11:56:26;;;;;;;8.57;4.20;;;26.20;43.40;;;;;;4965805;28;20910;-77
2023/07/04 11:59:10;;;;;;;8.97;4.90;;;25.90;44.70;;;;;;4970883;28;20457;-77
2023/07/04 12:01:55;;;;;;;12.40;5.63;;;25.80;46.10;;;;;;4974315;28;20460;-76
2023/07/04 12:04:41;;;;;;;11.63;6.07;;;25.50;47.90;;;;;;4969284;28;20443;-77
2023/07/04 12:07:31;;;;;;;9.97;5.53;;;25.00;49.40;;;;;;4966414;28;20559;-78
2023/07/04 12:10:19;;;;;;;14.80;4.80;;;25.00;50.20;;;;;;4960953;28;20477;-77
2023/07/04 12:12:55;;;;;;;6.70;5.00;;;25.30;48.70;;;;;;4974247;28;20437;-77
2023/07/04 12:15:27;;;;;;;10.10;5.63;;;25.90;47.70;;;;;;4973655;28;20444;-79
2023/07/04 12:17:58;;;;;;;11.10;5.90;;;25.90;46.30;;;;;;4967070;28;20434;-78
2023/07/04 12:20:26;;;;;;;8.10;5.00;;;25.00;48.30;;;;;;4971811;28;20476;-78
2023/07/04 12:22:57;;;;;;;9.93;5.40;;;24.70;49.70;;;;;;4972257;28;20519;-77
2023/07/04 12:25:28;;;;;;;8.43;5.17;;;24.70;49.30;;;;;;4968156;28;20843;-77
2023/07/04 12:28:02;;;;;;;13.33;5.77;;;25.50;47.80;;;;;;4974263;28;20488;-76
2023/07/04 12:30:27;;;;;;;8.93;5.43;;;26.00;46.20;;;;;;4976080;28;20468;-76
2023/07/04 12:32:53;;;;;;;10.90;5.47;;;25.60;46.60;;;;;;4978288;28;20441;-79
2023/07/04 12:35:25;;;;;;;14.27;5.70;;;25.10;48.10;;;;;;4974631;28;20195;-78
2023/07/04 12:37:55;;;;;;;12.10;5.70;;;25.30;47.30;;;;;;4972594;28;20284;-78
2023/07/04 12:40:26;;;;;;;8.20;4.87;;;25.00;47.70;;;;;;4968977;28;20517;-77
2023/07/04 12:42:52;;;;;;;11.93;5.80;;;25.40;47.90;;;;;;4973333;28;20437;-77
2023/07/04 12:45:36;;;;;;;8.47;4.90;;;25.80;46.70;;;;;;4973216;28;20438;-77
2023/07/04 12:48:04;;;;;;;9.43;4.93;;;26.70;45.30;;;;;;4970364;28;20492;-79
2023/07/04 12:50:31;;;;;;;7.80;4.90;;;27.70;43.00;;;;;;4968432;28;20515;-77
2023/07/04 12:52:58;;;;;;;8.20;5.10;;;28.50;40.70;;;;;;4965344;28;20439;-76